sensor_id;sensor_type;location;lat;lon;timestamp;P1;durP1;ratioP1;P2;durP2;ratioP2
69744;SDS011;57015;50.120;-5.168;2022-11-20T00:01:08;11.85;;;1.20;;
69744;SDS011;57015;50.120;-5.168;2022-11-20T00:03:38;12.67;;;0.70;;
69744;SDS011;57015;50.120;-5.168;2022-11-20T00:06:05;12.35;;;0.75;;
69744;SDS011;57015;50.120;-5.168;2022-11-20T00:08:32;14.33;;;0.80;;
69744;SDS011;57015;50.120;-5.168;2022-11-20T00:11:01;16.40;;;1.30;;
69744;SDS011;57015;50.120;-5.168;2022-11-20T00:13:37;9.27;;;1.60;;
69744;SDS011;57015;50.120;-5.168;2022-11-20T00:16:03;9.07;;;1.77;;
69744;SDS011;57015;50.120;-5.168;2022-11-20T00:18:32;10.13;;;1.40;;
69744;SDS011;57015;50.120;-5.168;2022-11-20T00:21:04;11.30;;;0.93;;
69744;SDS011;57015;50.120;-5.168;2022-11-20T00:23:31;9.32;;;0.73;;
69744;SDS011;57015;50.120;-5.168;2022-11-20T00:26:00;9.73;;;0.77;;
69744;SDS011;57015;50.120;-5.168;2022-11-20T00:28:29;7.97;;;0.90;;
69744;SDS011;57015;50.120;-5.168;2022-11-20T00:31:05;10.65;;;1.52;;
69744;SDS011;57015;50.120;-5.168;2022-11-20T00:33:33;13.40;;;0.90;;
69744;SDS011;57015;50.120;-5.168;2022-11-20T00:36:09;12.27;;;1.80;;
69744;SDS011;57015;50.120;-5.168;2022-11-20T00:38:35;11.98;;;0.90;;
69744;SDS011;57015;50.120;-5.168;2022-11-20T00:41:02;10.47;;;1.00;;
69744;SDS011;57015;50.120;-5.168;2022-11-20T00:43:32;11.02;;;0.77;;
69744;SDS011;57015;50.120;-5.168;2022-11-20T00:46:02;6.07;;;0.70;;
69744;SDS011;57015;50.120;-5.168;2022-11-20T00:48:29;9.30;;;1.10;;
69744;SDS011;57015;50.120;-5.168;2022-11-20T00:50:55;9.60;;;1.40;;
69744;SDS011;57015;50.120;-5.168;2022-11-20T00:53:20;12.07;;;0.70;;
69744;SDS011;57015;50.120;-5.168;2022-11-20T00:55:56;11.80;;;1.20;;
69744;SDS011;57015;50.120;-5.168;2022-11-20T00:58:28;14.30;;;0.70;;
69744;SDS011;57015;50.120;-5.168;2022-11-20T01:00:59;11.13;;;0.95;;
69744;SDS011;57015;50.120;-5.168;2022-11-20T01:03:30;12.25;;;0.98;;
69744;SDS011;57015;50.120;-5.168;2022-11-20T01:05:59;13.07;;;0.90;;
69744;SDS011;57015;50.120;-5.168;2022-11-20T01:08:28;7.77;;;0.90;;
69744;SDS011;57015;50.120;-5.168;2022-11-20T01:10:58;13.25;;;1.35;;
69744;SDS011;57015;50.120;-5.168;2022-11-20T01:13:28;10.35;;;0.68;;
69744;SDS011;57015;50.120;-5.168;2022-11-20T01:16:10;13.15;;;0.95;;
69744;SDS011;57015;50.120;-5.168;2022-11-20T01:18:44;17.27;;;1.33;;
69744;SDS011;57015;50.120;-5.168;2022-11-20T01:21:13;10.50;;;1.03;;
69744;SDS011;57015;50.120;-5.168;2022-11-20T01:23:40;13.55;;;1.02;;
69744;SDS011;57015;50.120;-5.168;2022-11-20T01:26:08;12.45;;;1.60;;
69744;SDS011;57015;50.120;-5.168;2022-11-20T01:28:35;10.68;;;1.08;;
69744;SDS011;57015;50.120;-5.168;2022-11-20T01:31:01;10.80;;;1.00;;
69744;SDS011;57015;50.120;-5.168;2022-11-20T01:33:26;6.57;;;0.80;;
69744;SDS011;57015;50.120;-5.168;2022-11-20T01:35:52;8.70;;;0.85;;
69744;SDS011;57015;50.120;-5.168;2022-11-20T01:38:18;14.33;;;1.20;;
69744;SDS011;57015;50.120;-5.168;2022-11-20T01:40:45;7.47;;;0.68;;
69744;SDS011;57015;50.120;-5.168;2022-11-20T01:43:16;12.27;;;1.10;;
69744;SDS011;57015;50.120;-5.168;2022-11-20T01:53:49;8.30;;;1.15;;
69744;SDS011;57015;50.120;-5.168;2022-11-20T01:56:15;15.43;;;1.30;;
69744;SDS011;57015;50.120;-5.168;2022-11-20T01:58:43;13.57;;;1.45;;
69744;SDS011;57015;50.120;-5.168;2022-11-20T02:01:12;18.40;;;1.58;;
69744;SDS011;57015;50.120;-5.168;2022-11-20T02:03:38;12.20;;;1.13;;
69744;SDS011;57015;50.120;-5.168;2022-11-20T02:06:06;14.30;;;1.98;;
69744;SDS011;57015;50.120;-5.168;2022-11-20T02:08:34;15.30;;;1.48;;
69744;SDS011;57015;50.120;-5.168;2022-11-20T02:11:00;13.82;;;1.40;;
69744;SDS011;57015;50.120;-5.168;2022-11-20T02:13:25;15.53;;;1.70;;
69744;SDS011;57015;50.120;-5.168;2022-11-20T02:16:14;16.20;;;1.40;;
69744;SDS011;57015;50.120;-5.168;2022-11-20T02:18:40;9.90;;;1.70;;
69744;SDS011;57015;50.120;-5.168;2022-11-20T02:21:07;15.85;;;1.40;;
69744;SDS011;57015;50.120;-5.168;2022-11-20T02:24:01;14.73;;;1.70;;
69744;SDS011;57015;50.120;-5.168;2022-11-20T02:26:31;9.80;;;1.13;;
69744;SDS011;57015;50.120;-5.168;2022-11-20T02:29:00;14.93;;;1.75;;
69744;SDS011;57015;50.120;-5.168;2022-11-20T02:31:25;18.85;;;1.58;;
69744;SDS011;57015;50.120;-5.168;2022-11-20T02:33:55;13.50;;;2.00;;
69744;SDS011;57015;50.120;-5.168;2022-11-20T02:36:24;19.50;;;2.28;;
69744;SDS011;57015;50.120;-5.168;2022-11-20T02:38:51;16.02;;;1.48;;
69744;SDS011;57015;50.120;-5.168;2022-11-20T02:41:17;9.40;;;1.43;;
69744;SDS011;57015;50.120;-5.168;2022-11-20T02:43:42;14.93;;;1.93;;
69744;SDS011;57015;50.120;-5.168;2022-11-20T02:46:07;17.23;;;1.20;;
69744;SDS011;57015;50.120;-5.168;2022-11-20T02:48:33;21.77;;;2.03;;
69744;SDS011;57015;50.120;-5.168;2022-11-20T02:50:58;16.87;;;1.87;;
69744;SDS011;57015;50.120;-5.168;2022-11-20T02:53:24;23.87;;;2.70;;
69744;SDS011;57015;50.120;-5.168;2022-11-20T02:55:49;15.93;;;2.30;;
69744;SDS011;57015;50.120;-5.168;2022-11-20T02:58:14;13.20;;;1.42;;
69744;SDS011;57015;50.120;-5.168;2022-11-20T03:00:40;14.97;;;1.93;;
69744;SDS011;57015;50.120;-5.168;2022-11-20T03:03:05;14.27;;;1.67;;
69744;SDS011;57015;50.120;-5.168;2022-11-20T03:05:30;16.40;;;2.00;;
69744;SDS011;57015;50.120;-5.168;2022-11-20T03:07:56;17.77;;;2.33;;
69744;SDS011;57015;50.120;-5.168;2022-11-20T03:10:21;15.13;;;1.83;;
69744;SDS011;57015;50.120;-5.168;2022-11-20T03:12:47;16.63;;;1.93;;
69744;SDS011;57015;50.120;-5.168;2022-11-20T03:15:12;17.55;;;1.58;;
69744;SDS011;57015;50.120;-5.168;2022-11-20T03:17:37;13.65;;;2.03;;
69744;SDS011;57015;50.120;-5.168;2022-11-20T03:20:03;16.13;;;1.90;;
69744;SDS011;57015;50.120;-5.168;2022-11-20T03:22:29;14.70;;;1.80;;
69744;SDS011;57015;50.120;-5.168;2022-11-20T03:24:55;14.33;;;1.57;;
69744;SDS011;57015;50.120;-5.168;2022-11-20T03:27:20;17.83;;;1.80;;
69744;SDS011;57015;50.120;-5.168;2022-11-20T03:29:45;14.45;;;1.40;;
69744;SDS011;57015;50.120;-5.168;2022-11-20T03:32:11;13.60;;;1.77;;
69744;SDS011;57015;50.120;-5.168;2022-11-20T03:34:36;8.83;;;1.07;;
69744;SDS011;57015;50.120;-5.168;2022-11-20T03:37:02;8.60;;;1.30;;
69744;SDS011;57015;50.120;-5.168;2022-11-20T03:39:27;11.90;;;1.17;;
69744;SDS011;57015;50.120;-5.168;2022-11-20T03:41:52;14.50;;;2.90;;
69744;SDS011;57015;50.120;-5.168;2022-11-20T03:44:20;13.32;;;1.85;;
69744;SDS011;57015;50.120;-5.168;2022-11-20T03:46:46;13.53;;;1.77;;
69744;SDS011;57015;50.120;-5.168;2022-11-20T03:49:11;12.27;;;2.25;;
69744;SDS011;57015;50.120;-5.168;2022-11-20T03:51:36;13.47;;;1.90;;
69744;SDS011;57015;50.120;-5.168;2022-11-20T03:54:06;13.70;;;1.97;;
69744;SDS011;57015;50.120;-5.168;2022-11-20T03:56:34;10.60;;;1.23;;
69744;SDS011;57015;50.120;-5.168;2022-11-20T03:59:01;15.60;;;2.10;;
69744;SDS011;57015;50.120;-5.168;2022-11-20T04:01:31;15.80;;;1.92;;
69744;SDS011;57015;50.120;-5.168;2022-11-20T04:04:02;18.65;;;1.75;;
69744;SDS011;57015;50.120;-5.168;2022-11-20T04:06:37;11.15;;;1.42;;
69744;SDS011;57015;50.120;-5.168;2022-11-20T04:09:03;13.10;;;1.52;;
69744;SDS011;57015;50.120;-5.168;2022-11-20T04:11:30;10.83;;;1.17;;
69744;SDS011;57015;50.120;-5.168;2022-11-20T04:14:00;10.75;;;1.13;;
69744;SDS011;57015;50.120;-5.168;2022-11-20T04:16:35;12.68;;;1.33;;
69744;SDS011;57015;50.120;-5.168;2022-11-20T04:19:01;15.52;;;1.65;;
69744;SDS011;57015;50.120;-5.168;2022-11-20T04:21:27;8.75;;;1.25;;
69744;SDS011;57015;50.120;-5.168;2022-11-20T04:23:53;11.60;;;1.50;;
69744;SDS011;57015;50.120;-5.168;2022-11-20T04:26:19;14.43;;;1.80;;
69744;SDS011;57015;50.120;-5.168;2022-11-20T04:28:45;11.60;;;0.90;;
69744;SDS011;57015;50.120;-5.168;2022-11-20T04:31:15;15.32;;;1.55;;
69744;SDS011;57015;50.120;-5.168;2022-11-20T04:33:42;14.27;;;1.48;;
69744;SDS011;57015;50.120;-5.168;2022-11-20T04:36:15;13.02;;;1.98;;
69744;SDS011;57015;50.120;-5.168;2022-11-20T04:38:44;8.87;;;0.90;;
69744;SDS011;57015;50.120;-5.168;2022-11-20T04:41:15;10.15;;;1.02;;
69744;SDS011;57015;50.120;-5.168;2022-11-20T04:43:41;13.45;;;1.40;;
69744;SDS011;57015;50.120;-5.168;2022-11-20T04:46:13;15.95;;;1.15;;
69744;SDS011;57015;50.120;-5.168;2022-11-20T04:48:39;12.80;;;1.30;;
69744;SDS011;57015;50.120;-5.168;2022-11-20T04:51:05;9.27;;;1.02;;
69744;SDS011;57015;50.120;-5.168;2022-11-20T04:53:31;17.13;;;1.40;;
69744;SDS011;57015;50.120;-5.168;2022-11-20T04:56:03;14.13;;;1.30;;
69744;SDS011;57015;50.120;-5.168;2022-11-20T04:58:32;13.97;;;1.23;;
69744;SDS011;57015;50.120;-5.168;2022-11-20T05:03:31;15.60;;;1.90;;
69744;SDS011;57015;50.120;-5.168;2022-11-20T05:05:59;15.53;;;1.10;;
69744;SDS011;57015;50.120;-5.168;2022-11-20T05:08:25;14.32;;;1.77;;
69744;SDS011;57015;50.120;-5.168;2022-11-20T05:10:50;12.13;;;1.67;;
69744;SDS011;57015;50.120;-5.168;2022-11-20T05:13:16;10.77;;;1.23;;
69744;SDS011;57015;50.120;-5.168;2022-11-20T05:15:41;21.83;;;2.40;;
69744;SDS011;57015;50.120;-5.168;2022-11-20T05:18:06;11.63;;;1.88;;
69744;SDS011;57015;50.120;-5.168;2022-11-20T05:20:32;9.07;;;1.00;;
69744;SDS011;57015;50.120;-5.168;2022-11-20T05:22:57;13.43;;;1.47;;
69744;SDS011;57015;50.120;-5.168;2022-11-20T05:25:23;9.27;;;1.77;;
69744;SDS011;57015;50.120;-5.168;2022-11-20T05:27:48;11.30;;;0.80;;
69744;SDS011;57015;50.120;-5.168;2022-11-20T05:30:14;13.88;;;1.98;;
69744;SDS011;57015;50.120;-5.168;2022-11-20T05:32:39;10.88;;;1.40;;
69744;SDS011;57015;50.120;-5.168;2022-11-20T05:35:05;11.70;;;1.40;;
69744;SDS011;57015;50.120;-5.168;2022-11-20T05:37:30;6.77;;;0.77;;
69744;SDS011;57015;50.120;-5.168;2022-11-20T05:39:56;11.00;;;1.17;;
69744;SDS011;57015;50.120;-5.168;2022-11-20T05:42:21;7.63;;;0.70;;
69744;SDS011;57015;50.120;-5.168;2022-11-20T05:44:56;6.75;;;1.55;;
69744;SDS011;57015;50.120;-5.168;2022-11-20T05:47:25;8.27;;;0.60;;
69744;SDS011;57015;50.120;-5.168;2022-11-20T05:49:52;7.40;;;0.63;;
69744;SDS011;57015;50.120;-5.168;2022-11-20T05:52:17;7.80;;;0.50;;
69744;SDS011;57015;50.120;-5.168;2022-11-20T05:54:42;8.05;;;0.60;;
69744;SDS011;57015;50.120;-5.168;2022-11-20T05:57:08;8.40;;;0.73;;
69744;SDS011;57015;50.120;-5.168;2022-11-20T05:59:33;5.40;;;0.50;;
69744;SDS011;57015;50.120;-5.168;2022-11-20T06:01:59;5.27;;;0.37;;
69744;SDS011;57015;50.120;-5.168;2022-11-20T06:04:24;4.77;;;0.40;;
69744;SDS011;57015;50.120;-5.168;2022-11-20T06:06:49;7.53;;;0.40;;
69744;SDS011;57015;50.120;-5.168;2022-11-20T06:09:15;6.35;;;1.17;;
69744;SDS011;57015;50.120;-5.168;2022-11-20T06:11:40;5.37;;;0.60;;
69744;SDS011;57015;50.120;-5.168;2022-11-20T06:14:05;6.83;;;0.47;;
69744;SDS011;57015;50.120;-5.168;2022-11-20T06:16:31;5.47;;;0.60;;
69744;SDS011;57015;50.120;-5.168;2022-11-20T06:18:56;4.67;;;0.60;;
69744;SDS011;57015;50.120;-5.168;2022-11-20T06:21:22;4.10;;;0.40;;
69744;SDS011;57015;50.120;-5.168;2022-11-20T06:23:48;4.30;;;0.90;;
69744;SDS011;57015;50.120;-5.168;2022-11-20T06:26:15;4.88;;;0.63;;
69744;SDS011;57015;50.120;-5.168;2022-11-20T06:28:42;4.88;;;0.95;;
69744;SDS011;57015;50.120;-5.168;2022-11-20T06:31:09;5.80;;;0.40;;
69744;SDS011;57015;50.120;-5.168;2022-11-20T06:33:35;2.78;;;0.32;;
69744;SDS011;57015;50.120;-5.168;2022-11-20T06:36:02;5.67;;;0.33;;
69744;SDS011;57015;50.120;-5.168;2022-11-20T06:38:28;3.60;;;0.75;;
69744;SDS011;57015;50.120;-5.168;2022-11-20T06:40:54;6.33;;;0.80;;
69744;SDS011;57015;50.120;-5.168;2022-11-20T06:43:19;4.32;;;0.50;;
69744;SDS011;57015;50.120;-5.168;2022-11-20T06:45:45;5.82;;;1.38;;
69744;SDS011;57015;50.120;-5.168;2022-11-20T06:48:11;4.27;;;0.40;;
69744;SDS011;57015;50.120;-5.168;2022-11-20T06:50:36;4.30;;;0.70;;
69744;SDS011;57015;50.120;-5.168;2022-11-20T06:53:02;5.70;;;0.47;;
69744;SDS011;57015;50.120;-5.168;2022-11-20T06:55:29;3.73;;;0.20;;
69744;SDS011;57015;50.120;-5.168;2022-11-20T06:57:54;6.32;;;0.63;;
69744;SDS011;57015;50.120;-5.168;2022-11-20T07:00:20;4.80;;;0.50;;
69744;SDS011;57015;50.120;-5.168;2022-11-20T07:02:45;6.97;;;0.40;;
69744;SDS011;57015;50.120;-5.168;2022-11-20T07:05:10;5.45;;;0.50;;
69744;SDS011;57015;50.120;-5.168;2022-11-20T07:07:36;5.25;;;0.52;;
69744;SDS011;57015;50.120;-5.168;2022-11-20T07:10:01;4.10;;;0.27;;
69744;SDS011;57015;50.120;-5.168;2022-11-20T07:12:27;4.80;;;0.33;;
69744;SDS011;57015;50.120;-5.168;2022-11-20T07:14:52;3.27;;;0.30;;
69744;SDS011;57015;50.120;-5.168;2022-11-20T07:17:17;3.87;;;0.70;;
69744;SDS011;57015;50.120;-5.168;2022-11-20T07:19:43;6.07;;;0.50;;
69744;SDS011;57015;50.120;-5.168;2022-11-20T07:22:08;7.63;;;0.93;;
69744;SDS011;57015;50.120;-5.168;2022-11-20T07:24:33;4.53;;;0.43;;
69744;SDS011;57015;50.120;-5.168;2022-11-20T07:26:59;12.43;;;1.35;;
69744;SDS011;57015;50.120;-5.168;2022-11-20T07:29:25;4.50;;;0.43;;
69744;SDS011;57015;50.120;-5.168;2022-11-20T07:31:50;7.50;;;0.50;;
69744;SDS011;57015;50.120;-5.168;2022-11-20T07:34:16;5.53;;;0.50;;
69744;SDS011;57015;50.120;-5.168;2022-11-20T07:36:41;6.73;;;0.83;;
69744;SDS011;57015;50.120;-5.168;2022-11-20T07:39:07;5.33;;;0.37;;
69744;SDS011;57015;50.120;-5.168;2022-11-20T07:41:32;4.10;;;0.60;;
69744;SDS011;57015;50.120;-5.168;2022-11-20T07:43:58;5.07;;;0.52;;
69744;SDS011;57015;50.120;-5.168;2022-11-20T07:46:23;2.27;;;0.30;;
69744;SDS011;57015;50.120;-5.168;2022-11-20T07:48:48;2.93;;;0.53;;
69744;SDS011;57015;50.120;-5.168;2022-11-20T07:51:14;3.60;;;0.30;;
69744;SDS011;57015;50.120;-5.168;2022-11-20T07:53:39;2.03;;;0.27;;
69744;SDS011;57015;50.120;-5.168;2022-11-20T07:56:05;3.40;;;0.20;;
69744;SDS011;57015;50.120;-5.168;2022-11-20T07:58:30;6.65;;;0.50;;
69744;SDS011;57015;50.120;-5.168;2022-11-20T08:00:57;5.35;;;0.82;;
69744;SDS011;57015;50.120;-5.168;2022-11-20T08:03:27;2.93;;;0.57;;
69744;SDS011;57015;50.120;-5.168;2022-11-20T08:05:52;5.05;;;0.70;;
69744;SDS011;57015;50.120;-5.168;2022-11-20T08:08:17;6.50;;;0.45;;
69744;SDS011;57015;50.120;-5.168;2022-11-20T08:10:43;9.20;;;0.67;;
69744;SDS011;57015;50.120;-5.168;2022-11-20T08:13:08;5.83;;;0.70;;
69744;SDS011;57015;50.120;-5.168;2022-11-20T08:15:52;7.40;;;0.65;;
69744;SDS011;57015;50.120;-5.168;2022-11-20T08:18:18;8.07;;;0.70;;
69744;SDS011;57015;50.120;-5.168;2022-11-20T08:20:43;11.03;;;1.10;;
69744;SDS011;57015;50.120;-5.168;2022-11-20T08:23:09;10.55;;;1.23;;
69744;SDS011;57015;50.120;-5.168;2022-11-20T08:25:35;8.67;;;1.47;;
69744;SDS011;57015;50.120;-5.168;2022-11-20T08:28:05;10.40;;;0.60;;
69744;SDS011;57015;50.120;-5.168;2022-11-20T08:30:34;7.80;;;1.00;;
69744;SDS011;57015;50.120;-5.168;2022-11-20T08:33:04;8.82;;;1.00;;
69744;SDS011;57015;50.120;-5.168;2022-11-20T08:35:34;13.93;;;1.10;;
69744;SDS011;57015;50.120;-5.168;2022-11-20T08:38:01;4.82;;;0.60;;
69744;SDS011;57015;50.120;-5.168;2022-11-20T08:40:27;5.93;;;0.75;;
69744;SDS011;57015;50.120;-5.168;2022-11-20T08:42:52;7.63;;;1.27;;
69744;SDS011;57015;50.120;-5.168;2022-11-20T08:45:18;5.10;;;0.73;;
69744;SDS011;57015;50.120;-5.168;2022-11-20T08:47:44;6.38;;;0.57;;
69744;SDS011;57015;50.120;-5.168;2022-11-20T08:50:11;8.38;;;1.13;;
69744;SDS011;57015;50.120;-5.168;2022-11-20T08:52:37;6.88;;;0.60;;
69744;SDS011;57015;50.120;-5.168;2022-11-20T08:55:03;3.93;;;0.47;;
69744;SDS011;57015;50.120;-5.168;2022-11-20T08:57:31;9.38;;;0.95;;
69744;SDS011;57015;50.120;-5.168;2022-11-20T09:00:00;12.37;;;0.60;;
69744;SDS011;57015;50.120;-5.168;2022-11-20T09:02:26;9.10;;;0.98;;
69744;SDS011;57015;50.120;-5.168;2022-11-20T09:04:51;6.28;;;0.75;;
69744;SDS011;57015;50.120;-5.168;2022-11-20T09:07:18;6.33;;;0.57;;
69744;SDS011;57015;50.120;-5.168;2022-11-20T09:09:43;6.75;;;0.70;;
69744;SDS011;57015;50.120;-5.168;2022-11-20T09:12:09;9.23;;;1.60;;
69744;SDS011;57015;50.120;-5.168;2022-11-20T09:14:34;10.23;;;0.87;;
69744;SDS011;57015;50.120;-5.168;2022-11-20T09:17:00;7.33;;;0.60;;
69744;SDS011;57015;50.120;-5.168;2022-11-20T09:19:25;7.47;;;1.07;;
69744;SDS011;57015;50.120;-5.168;2022-11-20T09:21:51;6.50;;;0.50;;
69744;SDS011;57015;50.120;-5.168;2022-11-20T09:24:16;15.53;;;1.50;;
69744;SDS011;57015;50.120;-5.168;2022-11-20T09:26:42;13.35;;;1.67;;
69744;SDS011;57015;50.120;-5.168;2022-11-20T09:29:07;20.20;;;1.57;;
69744;SDS011;57015;50.120;-5.168;2022-11-20T09:31:33;9.57;;;1.03;;
69744;SDS011;57015;50.120;-5.168;2022-11-20T09:33:58;13.40;;;1.60;;
69744;SDS011;57015;50.120;-5.168;2022-11-20T09:36:24;12.20;;;1.80;;
69744;SDS011;57015;50.120;-5.168;2022-11-20T09:38:49;13.37;;;2.17;;
69744;SDS011;57015;50.120;-5.168;2022-11-20T09:41:19;9.40;;;1.48;;
69744;SDS011;57015;50.120;-5.168;2022-11-20T09:51:57;10.70;;;1.20;;
69744;SDS011;57015;50.120;-5.168;2022-11-20T09:54:37;12.43;;;1.70;;
69744;SDS011;57015;50.120;-5.168;2022-11-20T09:57:04;11.20;;;1.50;;
69744;SDS011;57015;50.120;-5.168;2022-11-20T09:59:41;14.63;;;1.83;;
69744;SDS011;57015;50.120;-5.168;2022-11-20T10:04:53;14.20;;;1.25;;
69744;SDS011;57015;50.120;-5.168;2022-11-20T10:10:15;15.57;;;1.63;;
69744;SDS011;57015;50.120;-5.168;2022-11-20T10:15:33;11.93;;;1.63;;
69744;SDS011;57015;50.120;-5.168;2022-11-20T10:18:09;13.93;;;1.60;;
69744;SDS011;57015;50.120;-5.168;2022-11-20T10:20:47;15.20;;;2.50;;
69744;SDS011;57015;50.120;-5.168;2022-11-20T10:23:26;10.43;;;1.38;;
69744;SDS011;57015;50.120;-5.168;2022-11-20T10:26:00;15.17;;;2.10;;
69744;SDS011;57015;50.120;-5.168;2022-11-20T10:28:43;15.75;;;1.48;;
69744;SDS011;57015;50.120;-5.168;2022-11-20T10:31:14;13.43;;;1.50;;
69744;SDS011;57015;50.120;-5.168;2022-11-20T10:33:48;19.63;;;1.20;;
69744;SDS011;57015;50.120;-5.168;2022-11-20T10:36:18;13.90;;;1.08;;
69744;SDS011;57015;50.120;-5.168;2022-11-20T10:38:46;13.33;;;1.23;;
69744;SDS011;57015;50.120;-5.168;2022-11-20T10:41:23;15.43;;;1.95;;
69744;SDS011;57015;50.120;-5.168;2022-11-20T10:44:05;9.57;;;1.15;;
69744;SDS011;57015;50.120;-5.168;2022-11-20T10:46:39;11.93;;;1.50;;
69744;SDS011;57015;50.120;-5.168;2022-11-20T10:49:11;17.23;;;2.42;;
69744;SDS011;57015;50.120;-5.168;2022-11-20T10:51:41;13.33;;;2.00;;
69744;SDS011;57015;50.120;-5.168;2022-11-20T10:54:43;12.90;;;1.30;;
69744;SDS011;57015;50.120;-5.168;2022-11-20T10:57:58;15.35;;;1.80;;
69744;SDS011;57015;50.120;-5.168;2022-11-20T11:00:12;10.70;;;1.45;;
69744;SDS011;57015;50.120;-5.168;2022-11-20T11:02:47;15.20;;;1.27;;
69744;SDS011;57015;50.120;-5.168;2022-11-20T11:05:20;10.33;;;1.67;;
69744;SDS011;57015;50.120;-5.168;2022-11-20T11:07:53;9.38;;;1.38;;
69744;SDS011;57015;50.120;-5.168;2022-11-20T11:13:01;14.02;;;1.70;;
69744;SDS011;57015;50.120;-5.168;2022-11-20T11:15:35;18.17;;;1.80;;
69744;SDS011;57015;50.120;-5.168;2022-11-20T11:18:02;19.45;;;2.08;;
69744;SDS011;57015;50.120;-5.168;2022-11-20T11:20:28;11.90;;;1.73;;
69744;SDS011;57015;50.120;-5.168;2022-11-20T11:22:54;8.37;;;0.90;;
69744;SDS011;57015;50.120;-5.168;2022-11-20T11:25:22;12.25;;;1.20;;
69744;SDS011;57015;50.120;-5.168;2022-11-20T11:27:53;16.67;;;1.40;;
69744;SDS011;57015;50.120;-5.168;2022-11-20T11:30:21;10.20;;;1.35;;
69744;SDS011;57015;50.120;-5.168;2022-11-20T11:32:48;16.00;;;2.50;;
69744;SDS011;57015;50.120;-5.168;2022-11-20T11:35:26;16.10;;;1.80;;
69744;SDS011;57015;50.120;-5.168;2022-11-20T11:37:54;14.63;;;2.13;;
69744;SDS011;57015;50.120;-5.168;2022-11-20T11:40:27;20.07;;;1.80;;
69744;SDS011;57015;50.120;-5.168;2022-11-20T11:42:58;17.33;;;1.88;;
69744;SDS011;57015;50.120;-5.168;2022-11-20T11:45:26;10.25;;;1.48;;
69744;SDS011;57015;50.120;-5.168;2022-11-20T11:47:52;7.97;;;0.95;;
69744;SDS011;57015;50.120;-5.168;2022-11-20T11:50:23;4.73;;;1.50;;
69744;SDS011;57015;50.120;-5.168;2022-11-20T11:58:16;4.15;;;0.40;;
69744;SDS011;57015;50.120;-5.168;2022-11-20T12:01:37;5.28;;;0.43;;
69744;SDS011;57015;50.120;-5.168;2022-11-20T12:04:02;5.90;;;0.90;;
69744;SDS011;57015;50.120;-5.168;2022-11-20T12:06:30;1.45;;;0.22;;
69744;SDS011;57015;50.120;-5.168;2022-11-20T12:08:59;3.50;;;0.40;;
69744;SDS011;57015;50.120;-5.168;2022-11-20T12:16:49;11.90;;;1.20;;
69744;SDS011;57015;50.120;-5.168;2022-11-20T12:19:15;9.15;;;1.23;;
69744;SDS011;57015;50.120;-5.168;2022-11-20T12:25:03;10.93;;;1.10;;
69744;SDS011;57015;50.120;-5.168;2022-11-20T12:30:20;8.30;;;1.45;;
69744;SDS011;57015;50.120;-5.168;2022-11-20T12:38:15;15.17;;;1.73;;
69744;SDS011;57015;50.120;-5.168;2022-11-20T12:41:00;11.45;;;1.17;;
69744;SDS011;57015;50.120;-5.168;2022-11-20T12:43:43;11.30;;;1.20;;
69744;SDS011;57015;50.120;-5.168;2022-11-20T12:46:38;11.77;;;1.20;;
69744;SDS011;57015;50.120;-5.168;2022-11-20T12:49:17;15.57;;;1.52;;
69744;SDS011;57015;50.120;-5.168;2022-11-20T12:52:01;7.60;;;1.20;;
69744;SDS011;57015;50.120;-5.168;2022-11-20T13:08:20;22.40;;;1.73;;
69744;SDS011;57015;50.120;-5.168;2022-11-20T13:19:15;11.95;;;1.27;;
69744;SDS011;57015;50.120;-5.168;2022-11-20T13:21:42;16.73;;;2.67;;
69744;SDS011;57015;50.120;-5.168;2022-11-20T13:29:37;11.50;;;1.13;;
69744;SDS011;57015;50.120;-5.168;2022-11-20T13:32:15;14.27;;;1.50;;
69744;SDS011;57015;50.120;-5.168;2022-11-20T13:34:52;10.80;;;1.57;;
69744;SDS011;57015;50.120;-5.168;2022-11-20T13:37:29;11.13;;;1.55;;
69744;SDS011;57015;50.120;-5.168;2022-11-20T13:42:43;14.15;;;2.33;;
69744;SDS011;57015;50.120;-5.168;2022-11-20T13:45:26;12.57;;;1.27;;
69744;SDS011;57015;50.120;-5.168;2022-11-20T13:47:53;17.63;;;1.47;;
69744;SDS011;57015;50.120;-5.168;2022-11-20T13:50:21;15.77;;;1.23;;
69744;SDS011;57015;50.120;-5.168;2022-11-20T13:53:25;16.10;;;1.60;;
69744;SDS011;57015;50.120;-5.168;2022-11-20T14:01:49;15.40;;;1.97;;
69744;SDS011;57015;50.120;-5.168;2022-11-20T14:04:15;17.08;;;2.47;;
69744;SDS011;57015;50.120;-5.168;2022-11-20T14:06:45;14.90;;;1.80;;
69744;SDS011;57015;50.120;-5.168;2022-11-20T14:09:12;20.45;;;1.58;;
69744;SDS011;57015;50.120;-5.168;2022-11-20T14:11:49;14.88;;;1.73;;
69744;SDS011;57015;50.120;-5.168;2022-11-20T14:14:25;15.57;;;1.90;;
69744;SDS011;57015;50.120;-5.168;2022-11-20T14:16:52;11.23;;;1.50;;
69744;SDS011;57015;50.120;-5.168;2022-11-20T14:24:12;17.80;;;2.20;;
69744;SDS011;57015;50.120;-5.168;2022-11-20T14:26:42;16.53;;;1.80;;
69744;SDS011;57015;50.120;-5.168;2022-11-20T14:29:18;20.00;;;1.98;;
69744;SDS011;57015;50.120;-5.168;2022-11-20T14:31:46;18.42;;;1.67;;
69744;SDS011;57015;50.120;-5.168;2022-11-20T14:34:20;19.08;;;1.75;;
69744;SDS011;57015;50.120;-5.168;2022-11-20T14:36:48;15.82;;;2.05;;
69744;SDS011;57015;50.120;-5.168;2022-11-20T14:39:22;16.80;;;2.67;;
69744;SDS011;57015;50.120;-5.168;2022-11-20T14:41:50;8.43;;;1.30;;
69744;SDS011;57015;50.120;-5.168;2022-11-20T14:44:17;13.00;;;1.95;;
69744;SDS011;57015;50.120;-5.168;2022-11-20T14:46:42;11.93;;;1.93;;
69744;SDS011;57015;50.120;-5.168;2022-11-20T14:49:08;15.10;;;1.95;;
69744;SDS011;57015;50.120;-5.168;2022-11-20T14:51:36;24.73;;;2.57;;
69744;SDS011;57015;50.120;-5.168;2022-11-20T14:54:14;13.30;;;1.80;;
69744;SDS011;57015;50.120;-5.168;2022-11-20T14:56:41;17.45;;;1.85;;
69744;SDS011;57015;50.120;-5.168;2022-11-20T14:59:07;17.25;;;2.67;;
69744;SDS011;57015;50.120;-5.168;2022-11-20T15:01:33;16.38;;;2.03;;
69744;SDS011;57015;50.120;-5.168;2022-11-20T15:03:59;16.73;;;1.90;;
69744;SDS011;57015;50.120;-5.168;2022-11-20T15:06:26;15.60;;;2.63;;
69744;SDS011;57015;50.120;-5.168;2022-11-20T15:08:52;15.30;;;2.10;;
69744;SDS011;57015;50.120;-5.168;2022-11-20T15:11:18;14.88;;;1.85;;
69744;SDS011;57015;50.120;-5.168;2022-11-20T15:13:45;16.50;;;1.75;;
69744;SDS011;57015;50.120;-5.168;2022-11-20T15:16:18;9.93;;;1.20;;
69744;SDS011;57015;50.120;-5.168;2022-11-20T15:18:44;13.27;;;1.95;;
69744;SDS011;57015;50.120;-5.168;2022-11-20T15:21:14;12.77;;;1.50;;
69744;SDS011;57015;50.120;-5.168;2022-11-20T15:23:41;8.93;;;1.20;;
69744;SDS011;57015;50.120;-5.168;2022-11-20T15:26:07;13.40;;;1.87;;
69744;SDS011;57015;50.120;-5.168;2022-11-20T15:28:34;11.05;;;1.23;;
69744;SDS011;57015;50.120;-5.168;2022-11-20T15:31:02;13.20;;;1.77;;
69744;SDS011;57015;50.120;-5.168;2022-11-20T15:33:28;13.07;;;2.00;;
69744;SDS011;57015;50.120;-5.168;2022-11-20T15:35:54;13.75;;;2.08;;
69744;SDS011;57015;50.120;-5.168;2022-11-20T15:38:19;10.27;;;1.50;;
69744;SDS011;57015;50.120;-5.168;2022-11-20T15:40:45;12.23;;;2.40;;
69744;SDS011;57015;50.120;-5.168;2022-11-20T15:43:10;10.77;;;1.70;;
69744;SDS011;57015;50.120;-5.168;2022-11-20T15:45:43;17.33;;;2.42;;
69744;SDS011;57015;50.120;-5.168;2022-11-20T15:48:10;13.88;;;1.50;;
69744;SDS011;57015;50.120;-5.168;2022-11-20T15:50:39;10.80;;;1.50;;
69744;SDS011;57015;50.120;-5.168;2022-11-20T15:53:09;13.32;;;1.95;;
69744;SDS011;57015;50.120;-5.168;2022-11-20T15:55:35;16.75;;;2.90;;
69744;SDS011;57015;50.120;-5.168;2022-11-20T15:58:00;17.13;;;2.10;;
69744;SDS011;57015;50.120;-5.168;2022-11-20T16:00:26;14.70;;;2.22;;
69744;SDS011;57015;50.120;-5.168;2022-11-20T16:02:51;13.97;;;2.10;;
69744;SDS011;57015;50.120;-5.168;2022-11-20T16:05:17;19.63;;;3.57;;
69744;SDS011;57015;50.120;-5.168;2022-11-20T16:07:42;10.67;;;2.00;;